Knickerbocker — WDC7987 — position and weather

sailwx.info

Track history (hours):
 
Tides and Currents Weather Stations Pressure Air Temp Water Temp Dewpoint Dewpoint Depression Visibility Wind Speed Wind Dir Waves Ship Positions

Knickerbocker

Owner: Christopher Corp., Newport, RI. More information available from US FCC via Universal Licensing System and Coast Guard Vessel Documentation Center.

Last reported at 2016-May-26 02:32 UTC. Time now 2016-May-29 03:56 UTC.
Position N 40°43' W 073°58'.

Length 36 m; draft 3.6 m.

Type: Sailing vessel. MMSI: 367079960.

Date/timePositionNaut miles runAvg speedWind from/ knotsBaromVisibWave heightAir tempDewpointWater temp
2016-May-26 02:32N 40°43' W 073°58'2 2.5
2016-May-26 01:33N 40°42' W 074°01'3 3.0
2016-May-26 00:33N 40°45' W 074°01'4 3.7
2016-May-25 23:33N 40°42' W 074°02'3 1.3
2016-May-25 21:32N 40°43' W 073°59'0 0.0
2016-May-25 20:33N 40°43' W 073°59'0 0.0
2016-May-25 19:29N 40°43' W 073°59'0 0.1
2016-May-25 18:31N 40°43' W 073°59'61 1.4
2016-May-23 22:33N 41°07' W 072°45'8 8.3
2016-May-23 21:33N 41°08' W 072°34'8 7.6
2016-May-23 20:33N 41°10' W 072°24'7 7.0
2016-May-23 19:32N 41°12' W 072°15'45 8.6
2016-May-23 14:21N 41°29' W 071°20'1 0.2
2016-May-23 10:33N 41°29' W 071°19'0 0.0
2016-May-23 09:33N 41°29' W 071°19'0 0.0
2016-May-22 23:27N 41°29' W 071°19'0 0.0
2016-May-22 18:32N 41°29' W 071°19'0 0.0
2016-May-22 14:32N 41°29' W 071°19'0 0.0
2016-May-22 13:32N 41°29' W 071°19'0 0.0
2016-May-22 11:26N 41°29' W 071°19'0 0.0
2016-May-22 10:32N 41°29' W 071°19'0 0.0
2016-May-22 08:32N 41°29' W 071°19'0 0.0
2016-May-22 01:27N 41°29' W 071°19'0 0.0
2016-May-22 00:32N 41°29' W 071°19'0 0.0
2016-May-21 14:32N 41°29' W 071°19'0 0.0
2016-May-21 12:26N 41°29' W 071°19'0 0.0
2016-May-21 11:32N 41°29' W 071°19'0 0.0
2016-May-21 09:14N 41°29' W 071°19'0 0.0
2016-May-21 02:33N 41°29' W 071°19'0 0.0
2016-May-21 00:27N 41°29' W 071°19'0 0.0
2016-May-20 18:32N 41°29' W 071°19'0 0.0
2016-May-20 08:26N 41°29' W 071°19'0 0.0
2016-May-20 07:20N 41°29' W 071°19'0 0.0
2016-May-20 01:08N 41°29' W 071°19'0 0.0
2016-May-20 00:26N 41°29' W 071°19'0 0.0
2016-May-18 11:32N 41°29' W 071°19'0 0.0
2016-May-18 10:32N 41°29' W 071°19'0 0.0
2016-May-18 09:08N 41°29' W 071°19'0 0.0
2016-May-18 08:20N 41°29' W 071°19'0 0.0
2016-May-18 06:14N 41°29' W 071°19'0 0.0
2016-May-17 23:32N 41°29' W 071°19'0 0.0
2016-May-17 10:26N 41°29' W 071°19'0 0.0
2016-May-17 09:08N 41°29' W 071°19'0 0.0
2016-May-16 09:32N 41°29' W 071°19'0 0.0
2016-May-16 08:32N 41°29' W 071°19'0 0.0
2016-May-16 07:32N 41°29' W 071°19'0 0.0
2016-May-16 06:20N 41°29' W 071°19'0 0.0
2016-May-16 05:20N 41°29' W 071°19'0 0.0
2016-May-16 04:32N 41°29' W 071°19'0 0.0
2016-May-16 03:20N 41°29' W 071°19'  
Track history (hours):
 
Tides and Currents Weather Stations Pressure Air Temp Water Temp Dewpoint Dewpoint Depression Visibility Wind Speed Wind Dir Waves Ship Positions

Knickerbocker

Owner: Christopher Corp., Newport, RI. More information available from US FCC via Universal Licensing System and Coast Guard Vessel Documentation Center.

Last reported at 2016-May-26 02:32 UTC. Time now 2016-May-29 03:56 UTC.
Position N 40°43' W 073°58'.

Length 36 m; draft 3.6 m.

Type: Sailing vessel. MMSI: 367079960.

Date/timePositionNaut miles runAvg speedWind from/ knotsBaromVisibWave heightAir tempDewpointWater temp
2016-May-26 02:32N 40°43' W 073°58'2 2.5
2016-May-26 01:33N 40°42' W 074°01'3 3.0
2016-May-26 00:33N 40°45' W 074°01'4 3.7
2016-May-25 23:33N 40°42' W 074°02'3 1.3
2016-May-25 21:32N 40°43' W 073°59'0 0.0
2016-May-25 20:33N 40°43' W 073°59'0 0.0
2016-May-25 19:29N 40°43' W 073°59'0 0.1
2016-May-25 18:31N 40°43' W 073°59'61 1.4
2016-May-23 22:33N 41°07' W 072°45'8 8.3
2016-May-23 21:33N 41°08' W 072°34'8 7.6
2016-May-23 20:33N 41°10' W 072°24'7 7.0
2016-May-23 19:32N 41°12' W 072°15'45 8.6
2016-May-23 14:21N 41°29' W 071°20'1 0.2
2016-May-23 10:33N 41°29' W 071°19'0 0.0
2016-May-23 09:33N 41°29' W 071°19'0 0.0
2016-May-22 23:27N 41°29' W 071°19'0 0.0
2016-May-22 18:32N 41°29' W 071°19'0 0.0
2016-May-22 14:32N 41°29' W 071°19'0 0.0
2016-May-22 13:32N 41°29' W 071°19'0 0.0
2016-May-22 11:26N 41°29' W 071°19'0 0.0
2016-May-22 10:32N 41°29' W 071°19'0 0.0
2016-May-22 08:32N 41°29' W 071°19'0 0.0
2016-May-22 01:27N 41°29' W 071°19'0 0.0
2016-May-22 00:32N 41°29' W 071°19'0 0.0
2016-May-21 14:32N 41°29' W 071°19'0 0.0
2016-May-21 12:26N 41°29' W 071°19'0 0.0
2016-May-21 11:32N 41°29' W 071°19'0 0.0
2016-May-21 09:14N 41°29' W 071°19'0 0.0
2016-May-21 02:33N 41°29' W 071°19'0 0.0
2016-May-21 00:27N 41°29' W 071°19'0 0.0
2016-May-20 18:32N 41°29' W 071°19'0 0.0
2016-May-20 08:26N 41°29' W 071°19'0 0.0
2016-May-20 07:20N 41°29' W 071°19'0 0.0
2016-May-20 01:08N 41°29' W 071°19'0 0.0
2016-May-20 00:26N 41°29' W 071°19'0 0.0
2016-May-18 11:32N 41°29' W 071°19'0 0.0
2016-May-18 10:32N 41°29' W 071°19'0 0.0
2016-May-18 09:08N 41°29' W 071°19'0 0.0
2016-May-18 08:20N 41°29' W 071°19'0 0.0
2016-May-18 06:14N 41°29' W 071°19'0 0.0
2016-May-17 23:32N 41°29' W 071°19'0 0.0
2016-May-17 10:26N 41°29' W 071°19'0 0.0
2016-May-17 09:08N 41°29' W 071°19'0 0.0
2016-May-16 09:32N 41°29' W 071°19'0 0.0
2016-May-16 08:32N 41°29' W 071°19'0 0.0
2016-May-16 07:32N 41°29' W 071°19'0 0.0
2016-May-16 06:20N 41°29' W 071°19'0 0.0
2016-May-16 05:20N 41°29' W 071°19'0 0.0
2016-May-16 04:32N 41°29' W 071°19'0 0.0
2016-May-16 03:20N 41°29' W 071°19'  

Dump ship's entire track history